createdAt,value
2022-11-29T00:01:09.982Z,6.79
2022-11-29T00:03:37.496Z,6.79
2022-11-29T00:06:05.822Z,6.78
2022-11-29T00:08:32.958Z,6.79
2022-11-29T00:11:04.361Z,6.82
2022-11-29T00:13:32.685Z,6.82
2022-11-29T00:16:03.263Z,6.84
2022-11-29T00:18:30.197Z,6.82
2022-11-29T00:20:57.122Z,6.80
2022-11-29T00:23:23.780Z,6.81
2022-11-29T00:25:50.477Z,6.81
2022-11-29T00:28:17.310Z,6.81
2022-11-29T00:30:45.463Z,6.79
2022-11-29T00:33:12.174Z,6.77
2022-11-29T00:35:38.859Z,6.79
2022-11-29T00:38:05.773Z,6.78
2022-11-29T00:40:32.462Z,6.78
2022-11-29T00:42:59.122Z,6.78
2022-11-29T00:45:25.852Z,6.79
2022-11-29T00:47:54.046Z,6.80
2022-11-29T00:50:21.216Z,6.81
2022-11-29T00:52:47.924Z,6.82
2022-11-29T00:55:14.995Z,6.84
2022-11-29T00:57:42.056Z,6.81
2022-11-29T01:00:09.893Z,6.84
2022-11-29T01:02:36.650Z,6.88
2022-11-29T01:05:05.541Z,6.88
2022-11-29T01:07:32.255Z,6.87
2022-11-29T01:09:59.150Z,6.89
2022-11-29T01:12:25.868Z,6.89
2022-11-29T01:14:52.556Z,6.91
2022-11-29T01:17:19.404Z,6.92
2022-11-29T01:19:50.581Z,6.94
2022-11-29T01:22:19.063Z,6.95
2022-11-29T01:24:46.230Z,6.97
2022-11-29T01:27:13.377Z,6.97
2022-11-29T01:29:40.228Z,6.98
2022-11-29T01:32:06.892Z,7.01
2022-11-29T01:34:33.696Z,7.01
2022-11-29T01:37:00.488Z,7.02
2022-11-29T01:39:28.512Z,7.01
2022-11-29T01:41:55.431Z,7.02
2022-11-29T01:44:59.632Z,7.04
2022-11-29T01:47:26.624Z,7.03
2022-11-29T01:49:53.353Z,7.04
2022-11-29T01:52:23.997Z,7.05
2022-11-29T01:54:55.572Z,7.05
2022-11-29T01:57:26.811Z,7.04
2022-11-29T01:59:58.227Z,7.04
2022-11-29T02:02:32.932Z,7.05
2022-11-29T02:05:02.670Z,7.06
2022-11-29T02:07:29.647Z,7.06
2022-11-29T02:09:57.886Z,7.04
2022-11-29T02:12:34.928Z,7.05
2022-11-29T02:15:24.899Z,7.06
2022-11-29T02:18:06.615Z,7.03
2022-11-29T02:20:57.647Z,7.03
2022-11-29T02:23:47.527Z,7.06
2022-11-29T02:26:29.369Z,7.05
2022-11-29T02:29:44.305Z,7.03
2022-11-29T02:32:29.897Z,6.99
2022-11-29T02:35:08.248Z,6.97
2022-11-29T02:37:52.045Z,6.93
2022-11-29T02:40:54.620Z,6.87
2022-11-29T02:43:58.766Z,6.77
2022-11-29T02:46:48.742Z,6.75
2022-11-29T02:49:27.803Z,6.73
2022-11-29T02:52:00.327Z,6.72
2022-11-29T02:54:34.861Z,6.72
2022-11-29T02:57:11.800Z,6.76
2022-11-29T02:59:45.739Z,6.78
2022-11-29T03:02:22.918Z,6.81
2022-11-29T03:04:58.543Z,6.85
2022-11-29T03:07:35.816Z,6.88
2022-11-29T03:10:09.145Z,6.91
2022-11-29T03:12:40.298Z,6.92
2022-11-29T03:15:19.428Z,6.93
2022-11-29T03:18:01.138Z,6.90
2022-11-29T03:20:38.999Z,6.89
2022-11-29T03:23:18.955Z,6.88
2022-11-29T03:25:53.419Z,6.92
2022-11-29T03:28:25.026Z,6.90
2022-11-29T03:30:59.732Z,6.89
2022-11-29T03:33:35.884Z,6.87
2022-11-29T03:36:07.480Z,6.82
2022-11-29T03:38:39.827Z,6.78
2022-11-29T03:41:18.294Z,6.76
2022-11-29T03:43:50.624Z,6.73
2022-11-29T03:46:26.458Z,6.70
2022-11-29T03:48:59.470Z,6.68
2022-11-29T03:51:41.000Z,6.69
2022-11-29T03:54:10.975Z,6.70
2022-11-29T03:56:39.957Z,6.70
2022-11-29T03:59:24.599Z,6.72
2022-11-29T04:02:18.495Z,6.69
2022-11-29T04:05:21.208Z,6.71
2022-11-29T04:08:02.630Z,6.69
2022-11-29T04:11:02.803Z,6.69
2022-11-29T04:13:58.424Z,6.65
2022-11-29T04:17:02.343Z,6.65
2022-11-29T04:20:01.057Z,6.65
2022-11-29T04:22:56.830Z,6.66
2022-11-29T04:25:52.950Z,6.69
2022-11-29T04:28:53.946Z,6.70
2022-11-29T04:31:36.462Z,6.70
2022-11-29T04:34:29.870Z,6.70
2022-11-29T04:37:18.730Z,6.73
2022-11-29T04:40:27.014Z,6.74
2022-11-29T04:43:34.778Z,6.73
2022-11-29T04:46:29.830Z,6.70
2022-11-29T04:49:16.329Z,6.70
2022-11-29T04:51:58.912Z,6.71
2022-11-29T04:54:31.150Z,6.71
2022-11-29T04:57:08.139Z,6.72
2022-11-29T04:59:43.351Z,6.71
2022-11-29T05:02:27.043Z,6.71
2022-11-29T05:05:03.972Z,6.73
2022-11-29T05:07:37.182Z,6.73
2022-11-29T05:10:22.885Z,6.73
2022-11-29T05:12:59.700Z,6.74
2022-11-29T05:15:50.199Z,6.78
2022-11-29T05:18:26.730Z,6.81
2022-11-29T05:21:02.488Z,6.88
2022-11-29T05:23:40.059Z,6.91
2022-11-29T05:26:14.523Z,6.94
2022-11-29T05:28:53.498Z,6.95
2022-11-29T05:31:29.442Z,6.97
2022-11-29T05:34:07.839Z,6.96
2022-11-29T05:36:43.895Z,6.98
2022-11-29T05:39:20.548Z,6.97
2022-11-29T05:42:02.601Z,6.96
2022-11-29T05:44:36.478Z,6.95
2022-11-29T05:47:04.698Z,6.92
2022-11-29T05:49:40.266Z,6.93
2022-11-29T05:52:21.520Z,6.95
2022-11-29T05:55:00.602Z,6.98
2022-11-29T05:57:36.222Z,6.98
2022-11-29T06:00:06.567Z,6.98
2022-11-29T06:02:49.167Z,6.99
2022-11-29T06:05:24.902Z,7.00
2022-11-29T06:07:58.137Z,6.99
2022-11-29T06:10:28.650Z,7.01
2022-11-29T06:13:05.826Z,7.02
2022-11-29T06:16:19.002Z,7.04
2022-11-29T06:19:11.962Z,7.03
2022-11-29T06:21:45.908Z,7.02
2022-11-29T06:24:29.812Z,7.02
2022-11-29T06:27:15.770Z,7.01
2022-11-29T06:29:48.190Z,7.01
2022-11-29T06:32:25.242Z,7.00
2022-11-29T06:34:56.410Z,6.99
2022-11-29T06:37:27.782Z,6.98
2022-11-29T06:39:55.355Z,6.95
2022-11-29T06:42:21.980Z,6.96
2022-11-29T06:44:49.349Z,6.96
2022-11-29T06:47:26.771Z,6.95
2022-11-29T06:49:58.897Z,6.93
2022-11-29T06:52:37.629Z,6.98
2022-11-29T06:55:12.938Z,6.98
2022-11-29T06:57:55.856Z,6.98
2022-11-29T07:00:26.921Z,7.01
2022-11-29T07:03:15.500Z,7.05
2022-11-29T07:05:42.956Z,7.02
2022-11-29T07:08:15.185Z,7.02
2022-11-29T07:10:43.515Z,7.01
2022-11-29T07:13:12.434Z,6.99
2022-11-29T07:15:42.092Z,7.00
2022-11-29T07:18:21.622Z,7.03
2022-11-29T07:20:58.733Z,7.05
2022-11-29T07:23:33.438Z,7.06
2022-11-29T07:26:15.086Z,7.07
2022-11-29T07:28:53.458Z,7.05
2022-11-29T07:31:29.011Z,7.02
2022-11-29T07:34:08.966Z,7.03
2022-11-29T07:36:47.881Z,7.00
2022-11-29T07:39:25.115Z,7.01
2022-11-29T07:42:02.646Z,7.02
2022-11-29T07:44:38.976Z,7.03
2022-11-29T07:47:05.829Z,7.03
2022-11-29T07:49:33.997Z,7.05
2022-11-29T07:52:00.957Z,7.07
2022-11-29T07:54:27.930Z,7.11
2022-11-29T07:56:54.652Z,7.15
2022-11-29T07:59:21.416Z,7.16
2022-11-29T08:01:48.286Z,7.20
2022-11-29T08:04:15.206Z,7.22
2022-11-29T08:06:43.249Z,7.21
2022-11-29T08:09:10.252Z,7.24
2022-11-29T08:11:36.992Z,7.25
2022-11-29T08:14:05.277Z,7.31
2022-11-29T08:16:32.436Z,7.32
2022-11-29T08:18:59.321Z,7.33
2022-11-29T08:21:26.578Z,7.30
2022-11-29T08:23:55.116Z,7.28
2022-11-29T08:26:25.628Z,7.28
2022-11-29T08:28:57.043Z,7.31
2022-11-29T08:31:23.755Z,7.32
2022-11-29T08:33:50.490Z,7.33
2022-11-29T08:36:19.458Z,7.35
2022-11-29T08:38:46.721Z,7.37
2022-11-29T08:41:16.632Z,7.36
2022-11-29T08:43:43.800Z,7.35
2022-11-29T08:46:16.725Z,7.35
2022-11-29T08:48:45.246Z,7.36
2022-11-29T08:51:12.260Z,7.40
2022-11-29T08:53:41.795Z,7.45
2022-11-29T08:56:41.852Z,7.48
2022-11-29T08:58:57.123Z,7.48
2022-11-29T09:01:24.185Z,7.48
2022-11-29T09:03:59.794Z,7.51
2022-11-29T09:06:27.669Z,7.54
2022-11-29T09:08:54.724Z,7.59
2022-11-29T09:11:22.910Z,7.62
2022-11-29T09:13:52.126Z,7.63
2022-11-29T09:16:22.486Z,7.67
2022-11-29T09:18:51.819Z,7.71
2022-11-29T09:21:19.349Z,7.76
2022-11-29T09:23:46.987Z,7.76
2022-11-29T09:26:18.080Z,7.80
2022-11-29T09:28:45.108Z,7.80
2022-11-29T09:31:14.316Z,7.82
2022-11-29T09:33:43.235Z,7.84
2022-11-29T09:36:11.158Z,7.89
2022-11-29T09:38:38.531Z,7.98
2022-11-29T09:41:14.947Z,8.02
2022-11-29T09:43:53.118Z,8.06
2022-11-29T09:46:33.323Z,8.06
2022-11-29T09:49:18.000Z,8.06
2022-11-29T09:51:53.682Z,8.07
2022-11-29T09:54:29.662Z,8.09
2022-11-29T09:56:57.404Z,8.10
2022-11-29T09:59:29.142Z,8.14
2022-11-29T10:02:00.407Z,8.20
2022-11-29T10:04:32.442Z,8.26
2022-11-29T10:07:06.080Z,8.28
2022-11-29T10:09:39.084Z,8.29
2022-11-29T10:12:14.009Z,8.29
2022-11-29T10:14:46.851Z,8.29
2022-11-29T10:17:25.190Z,8.29
2022-11-29T10:19:59.311Z,8.33
2022-11-29T10:22:38.226Z,8.33
2022-11-29T10:25:06.950Z,8.33
2022-11-29T10:27:36.171Z,8.36
2022-11-29T10:30:03.277Z,8.34
2022-11-29T10:32:32.716Z,8.32
2022-11-29T10:35:02.408Z,8.31
2022-11-29T10:37:32.678Z,8.32
2022-11-29T10:40:04.246Z,8.33
2022-11-29T10:42:48.936Z,8.30
2022-11-29T10:45:18.223Z,8.25
2022-11-29T10:47:46.608Z,8.23
2022-11-29T10:50:16.794Z,8.24
2022-11-29T10:52:43.656Z,8.20
2022-11-29T10:55:12.564Z,8.14
2022-11-29T10:57:59.152Z,8.12
2022-11-29T11:00:28.274Z,8.09
2022-11-29T11:02:54.841Z,8.04
2022-11-29T11:05:25.691Z,8.03
2022-11-29T11:07:56.246Z,7.99
2022-11-29T11:13:19.280Z,7.90
2022-11-29T11:15:48.182Z,7.87
2022-11-29T11:18:19.730Z,7.82
2022-11-29T11:20:51.799Z,7.79
2022-11-29T11:23:23.876Z,7.78
2022-11-29T11:25:55.739Z,7.78
2022-11-29T11:28:23.315Z,7.73
2022-11-29T11:30:53.789Z,7.68
2022-11-29T11:33:22.384Z,7.66
2022-11-29T11:36:09.835Z,7.65
2022-11-29T11:38:38.307Z,7.63
2022-11-29T11:41:06.828Z,7.62
2022-11-29T11:43:35.090Z,7.62
2022-11-29T11:46:03.357Z,7.64
2022-11-29T11:48:30.331Z,7.67
2022-11-29T11:50:58.388Z,7.70
2022-11-29T11:53:26.865Z,7.72
2022-11-29T11:55:55.984Z,7.78
2022-11-29T11:58:23.708Z,7.80
2022-11-29T12:01:06.869Z,7.81
2022-11-29T12:03:39.201Z,7.79
2022-11-29T12:06:23.491Z,7.74
2022-11-29T12:08:57.905Z,7.72
2022-11-29T12:11:27.164Z,7.68
2022-11-29T12:13:56.698Z,7.64
2022-11-29T12:16:29.513Z,7.64
2022-11-29T12:19:05.188Z,7.65
2022-11-29T12:21:34.075Z,7.72
2022-11-29T12:24:04.226Z,7.76
2022-11-29T12:26:56.297Z,7.81
2022-11-29T12:29:24.908Z,7.86
2022-11-29T12:31:59.267Z,7.86
2022-11-29T12:34:37.211Z,7.88
2022-11-29T12:37:08.031Z,7.93
2022-11-29T12:39:44.491Z,7.90
2022-11-29T12:42:16.580Z,7.87
2022-11-29T12:44:50.957Z,7.87
2022-11-29T12:47:38.822Z,7.89
2022-11-29T12:50:20.458Z,7.88
2022-11-29T12:52:58.903Z,7.90
2022-11-29T12:55:30.194Z,7.90
2022-11-29T12:58:02.338Z,7.87
2022-11-29T13:00:32.828Z,7.83
2022-11-29T13:03:06.838Z,7.82
2022-11-29T13:05:42.375Z,7.79
2022-11-29T13:08:20.610Z,7.77
2022-11-29T13:11:01.542Z,7.75
2022-11-29T13:13:34.651Z,7.73
2022-11-29T13:16:06.131Z,7.67
2022-11-29T13:18:36.757Z,7.65
2022-11-29T13:21:07.707Z,7.64
2022-11-29T13:24:07.477Z,7.63
2022-11-29T13:26:31.115Z,7.61
2022-11-29T13:28:58.104Z,7.59
2022-11-29T13:31:25.696Z,7.59
2022-11-29T13:33:59.511Z,7.64
2022-11-29T13:36:32.683Z,7.70
2022-11-29T13:39:05.770Z,7.73
2022-11-29T13:41:34.894Z,7.74
2022-11-29T13:44:04.593Z,7.77
2022-11-29T13:46:35.104Z,7.79
2022-11-29T13:49:02.178Z,7.80
2022-11-29T13:51:31.392Z,7.80
2022-11-29T13:54:00.076Z,7.81
2022-11-29T13:56:32.950Z,7.80
2022-11-29T13:59:01.615Z,7.80
2022-11-29T14:01:28.592Z,7.81
2022-11-29T14:04:04.683Z,7.79
2022-11-29T14:06:36.495Z,7.78
2022-11-29T14:09:21.100Z,7.79
2022-11-29T14:11:51.576Z,7.76
2022-11-29T14:17:11.810Z,7.70
2022-11-29T14:19:38.495Z,7.70
2022-11-29T14:22:19.890Z,7.72
2022-11-29T14:25:49.237Z,7.70
2022-11-29T14:28:25.091Z,7.65
2022-11-29T14:30:52.441Z,7.63
2022-11-29T14:33:24.661Z,7.64
2022-11-29T14:36:00.330Z,7.66
2022-11-29T14:38:31.225Z,7.69
2022-11-29T14:41:00.911Z,7.68
2022-11-29T14:43:32.354Z,7.72
2022-11-29T14:46:09.188Z,7.73
2022-11-29T14:48:36.990Z,7.76
2022-11-29T14:51:09.340Z,7.78
2022-11-29T14:53:37.717Z,7.78
2022-11-29T14:56:23.236Z,7.77
2022-11-29T14:59:12.287Z,7.76
2022-11-29T15:01:42.779Z,7.72
2022-11-29T15:04:10.602Z,7.68
2022-11-29T15:06:45.138Z,7.65
2022-11-29T15:09:17.207Z,7.62
2022-11-29T15:11:50.316Z,7.60
2022-11-29T15:14:27.083Z,7.59
2022-11-29T15:17:08.957Z,7.58
2022-11-29T15:19:45.652Z,7.57
2022-11-29T15:22:16.133Z,7.57
2022-11-29T15:24:50.201Z,7.58
2022-11-29T15:27:20.794Z,7.60
2022-11-29T15:30:02.482Z,7.61
2022-11-29T15:32:33.544Z,7.64
2022-11-29T15:35:00.409Z,7.62
2022-11-29T15:37:41.825Z,7.60
2022-11-29T15:40:13.759Z,7.59
2022-11-29T15:42:41.939Z,7.60
2022-11-29T15:45:36.920Z,7.61
2022-11-29T15:48:13.966Z,7.58
2022-11-29T15:50:44.295Z,7.56
2022-11-29T15:53:15.699Z,7.51
2022-11-29T15:55:46.223Z,7.50
2022-11-29T15:58:14.243Z,7.51
2022-11-29T16:00:43.985Z,7.52
2022-11-29T16:03:18.351Z,7.50
2022-11-29T16:05:49.667Z,7.46
2022-11-29T16:08:18.923Z,7.43
2022-11-29T16:10:49.493Z,7.42
2022-11-29T16:13:31.855Z,7.40
2022-11-29T16:16:10.857Z,7.36
2022-11-29T16:18:41.025Z,7.34
2022-11-29T16:21:18.614Z,7.31
2022-11-29T16:23:46.830Z,7.30
2022-11-29T16:26:15.401Z,7.28
2022-11-29T16:28:43.032Z,7.27
2022-11-29T16:31:13.646Z,7.25
2022-11-29T16:33:47.878Z,7.26
2022-11-29T16:36:17.705Z,7.30
2022-11-29T16:38:45.519Z,7.33
2022-11-29T16:41:22.097Z,7.34
2022-11-29T16:43:53.999Z,7.34
2022-11-29T16:46:26.867Z,7.32
2022-11-29T16:48:55.615Z,7.32
2022-11-29T16:51:24.101Z,7.32
2022-11-29T16:53:54.040Z,7.34
2022-11-29T16:56:22.802Z,7.36
2022-11-29T16:59:25.933Z,7.36
2022-11-29T17:01:39.274Z,7.36
2022-11-29T17:04:08.834Z,7.36
2022-11-29T17:06:35.693Z,7.35
2022-11-29T17:09:02.769Z,7.34
2022-11-29T17:11:29.583Z,7.33
2022-11-29T17:13:56.920Z,7.30
2022-11-29T17:16:24.643Z,7.30
2022-11-29T17:18:53.663Z,7.29
2022-11-29T17:21:24.632Z,7.26
2022-11-29T17:23:52.418Z,7.24
2022-11-29T17:26:20.042Z,7.24
2022-11-29T17:28:47.544Z,7.25
2022-11-29T17:31:14.940Z,7.27
2022-11-29T17:33:41.749Z,7.28
2022-11-29T17:36:09.712Z,7.27
2022-11-29T17:38:39.539Z,7.24
2022-11-29T17:41:06.777Z,7.21
2022-11-29T17:43:33.670Z,7.19
2022-11-29T17:46:05.718Z,7.20
2022-11-29T17:48:33.687Z,7.22
2022-11-29T17:51:00.918Z,7.23
2022-11-29T17:53:29.160Z,7.23
2022-11-29T17:56:02.343Z,7.24
2022-11-29T17:58:28.986Z,7.25
2022-11-29T18:01:03.364Z,7.26
2022-11-29T18:03:37.561Z,7.25
2022-11-29T18:06:06.790Z,7.26
2022-11-29T18:08:37.486Z,7.26
2022-11-29T18:11:07.434Z,7.26
2022-11-29T18:13:34.914Z,7.26
2022-11-29T18:16:02.594Z,7.26
2022-11-29T18:21:12.635Z,7.26
2022-11-29T18:26:39.191Z,7.26
2022-11-29T18:37:20.031Z,7.14
2022-11-29T18:45:34.866Z,7.04
2022-11-29T18:48:16.673Z,7.04
2022-11-29T18:53:53.743Z,7.07
2022-11-29T18:56:24.482Z,7.07
2022-11-29T19:04:16.527Z,7.11
2022-11-29T19:06:44.886Z,7.11
2022-11-29T19:09:14.467Z,7.11
2022-11-29T19:14:32.423Z,7.08
2022-11-29T19:17:01.724Z,7.07
2022-11-29T19:19:30.110Z,7.07
2022-11-29T19:24:39.278Z,7.10
2022-11-29T19:27:24.908Z,7.09
2022-11-29T19:29:57.510Z,7.08
2022-11-29T19:32:25.250Z,7.08
2022-11-29T19:34:54.549Z,7.07
2022-11-29T19:40:09.306Z,7.05
2022-11-29T19:45:33.244Z,7.02
2022-11-29T19:48:16.658Z,7.00
2022-11-29T19:50:58.292Z,7.00
2022-11-29T19:56:35.500Z,6.97
2022-11-29T20:04:58.223Z,6.96
2022-11-29T20:07:27.012Z,6.95
2022-11-29T20:12:41.535Z,6.91
2022-11-29T20:26:15.848Z,6.87
2022-11-29T20:28:45.669Z,6.85
2022-11-29T20:47:58.861Z,6.89
2022-11-29T20:50:27.519Z,6.90
2022-11-29T20:56:06.372Z,6.83
2022-11-29T20:58:51.097Z,6.80
2022-11-29T21:32:37.470Z,6.67
2022-11-29T21:44:22.397Z,6.70
2022-11-29T21:52:33.374Z,6.69
2022-11-29T21:57:41.790Z,6.68
2022-11-29T22:00:16.778Z,6.67
2022-11-29T22:02:45.743Z,6.66
2022-11-29T22:05:18.042Z,6.67
2022-11-29T22:07:44.913Z,6.66
2022-11-29T22:12:54.953Z,6.67
2022-11-29T22:15:25.014Z,6.66
2022-11-29T22:17:53.273Z,6.65
2022-11-29T22:23:18.250Z,6.66
2022-11-29T22:25:49.545Z,6.65
2022-11-29T22:31:02.410Z,6.65
2022-11-29T22:33:30.301Z,6.65
2022-11-29T22:44:05.919Z,6.66
2022-11-29T22:49:17.811Z,6.64
2022-11-29T22:51:58.334Z,6.64
2022-11-29T22:57:06.412Z,6.64
2022-11-29T22:59:42.774Z,6.64
2022-11-29T23:04:56.745Z,6.63
2022-11-29T23:07:26.494Z,6.64
2022-11-29T23:10:03.311Z,6.63
2022-11-29T23:15:15.797Z,6.62
2022-11-29T23:17:43.098Z,6.52
2022-11-29T23:20:10.373Z,6.46
2022-11-29T23:22:46.280Z,6.46
2022-11-29T23:25:14.443Z,6.47
2022-11-29T23:27:48.572Z,6.49
2022-11-29T23:30:27.165Z,6.51
2022-11-29T23:32:57.588Z,6.50
2022-11-29T23:35:25.463Z,6.51
2022-11-29T23:40:38.026Z,6.46
2022-11-29T23:43:08.403Z,6.46
2022-11-29T23:45:36.229Z,6.43
2022-11-29T23:48:03.159Z,6.42
2022-11-29T23:50:30.578Z,6.40
2022-11-29T23:53:07.100Z,6.38
2022-11-29T23:55:33.968Z,6.36
2022-11-29T23:58:01.612Z,6.33
